createdAt,value
2023-02-05T00:01:35.767Z,1.60
2023-02-05T00:04:03.446Z,1.60
2023-02-05T00:06:30.917Z,1.60
2023-02-05T00:08:58.521Z,1.60
2023-02-05T00:11:26.297Z,1.60
2023-02-05T00:13:54.074Z,1.60
2023-02-05T00:16:24.613Z,1.60
2023-02-05T00:18:52.977Z,1.60
2023-02-05T00:21:22.801Z,1.70
2023-02-05T00:23:50.746Z,1.70
2023-02-05T00:26:18.051Z,1.80
2023-02-05T00:28:46.899Z,1.80
2023-02-05T00:31:21.884Z,1.80
2023-02-05T00:33:50.463Z,1.80
2023-02-05T00:36:19.728Z,1.90
2023-02-05T00:38:47.647Z,1.90
2023-02-05T00:41:15.840Z,1.90
2023-02-05T00:43:43.885Z,1.90
2023-02-05T00:46:13.116Z,1.90
2023-02-05T00:48:41.063Z,1.90
2023-02-05T00:51:09.898Z,1.90
2023-02-05T00:53:37.338Z,1.90
2023-02-05T00:56:04.835Z,1.80
2023-02-05T00:58:32.619Z,1.80
2023-02-05T01:00:59.995Z,1.80
2023-02-05T01:03:27.416Z,1.80
2023-02-05T01:05:55.032Z,1.80
2023-02-05T01:08:22.582Z,1.80
2023-02-05T01:10:51.320Z,1.80
2023-02-05T01:13:19.400Z,1.80
2023-02-05T01:15:46.985Z,1.80
2023-02-05T01:18:14.423Z,1.70
2023-02-05T01:20:42.846Z,1.80
2023-02-05T01:23:11.268Z,1.70
2023-02-05T01:25:39.229Z,1.70
2023-02-05T01:28:07.046Z,1.70
2023-02-05T01:30:35.548Z,1.70
2023-02-05T01:33:04.065Z,1.70
2023-02-05T01:35:32.179Z,1.60
2023-02-05T01:37:59.697Z,1.60
2023-02-05T01:40:27.562Z,1.50
2023-02-05T01:42:55.286Z,1.50
2023-02-05T01:45:22.642Z,1.40
2023-02-05T01:47:51.254Z,1.30
2023-02-05T01:50:23.511Z,1.30
2023-02-05T01:52:51.407Z,1.20
2023-02-05T01:55:19.766Z,1.20
2023-02-05T01:57:49.555Z,1.20
2023-02-05T02:00:17.019Z,1.20
2023-02-05T02:02:44.656Z,1.20
2023-02-05T02:05:15.005Z,1.10
2023-02-05T02:07:43.082Z,1.10
2023-02-05T02:10:14.076Z,1.10
2023-02-05T02:12:44.160Z,1.00
2023-02-05T02:15:19.131Z,0.90
2023-02-05T02:17:52.001Z,0.90
2023-02-05T02:20:23.562Z,0.80
2023-02-05T02:23:09.007Z,0.80
2023-02-05T02:25:48.118Z,0.80
2023-02-05T02:28:29.435Z,0.70
2023-02-05T02:31:01.997Z,0.70
2023-02-05T02:33:42.998Z,0.70
2023-02-05T02:36:40.196Z,0.70
2023-02-05T02:39:32.377Z,0.60
2023-02-05T02:42:10.070Z,0.60
2023-02-05T02:44:50.853Z,0.60
2023-02-05T02:47:22.368Z,0.60
2023-02-05T02:49:57.978Z,0.50
2023-02-05T02:52:27.554Z,0.50
2023-02-05T02:55:00.733Z,0.50
2023-02-05T02:57:29.757Z,0.50
2023-02-05T03:00:01.229Z,0.40
2023-02-05T03:02:33.003Z,0.40
2023-02-05T03:05:04.333Z,0.40
2023-02-05T03:07:39.436Z,0.40
2023-02-05T03:10:23.766Z,0.40
2023-02-05T03:12:51.300Z,0.40
2023-02-05T03:15:19.004Z,0.30
2023-02-05T03:17:46.708Z,0.30
2023-02-05T03:20:20.341Z,0.30
2023-02-05T03:22:48.256Z,0.30
2023-02-05T03:25:19.246Z,0.30
2023-02-05T03:27:48.605Z,0.30
2023-02-05T03:30:16.677Z,0.30
2023-02-05T03:32:47.748Z,0.20
2023-02-05T03:35:35.338Z,0.20
2023-02-05T03:38:27.292Z,0.20
2023-02-05T03:41:12.132Z,0.20
2023-02-05T03:43:55.305Z,0.20
2023-02-05T03:46:43.674Z,0.20
2023-02-05T03:49:26.789Z,0.20
2023-02-05T03:52:15.751Z,0.20
2023-02-05T03:54:51.364Z,0.20
2023-02-05T03:57:46.494Z,0.10
2023-02-05T04:00:14.598Z,0.10
2023-02-05T04:02:44.091Z,0.10
2023-02-05T04:05:16.713Z,0.20
2023-02-05T04:07:44.939Z,0.10
2023-02-05T04:10:13.458Z,0.10
2023-02-05T04:12:41.558Z,0.10
2023-02-05T04:15:09.476Z,0.10
2023-02-05T04:17:40.341Z,0.10
2023-02-05T04:20:09.960Z,0.10
2023-02-05T04:22:37.590Z,0.10
2023-02-05T04:25:05.245Z,0.10
2023-02-05T04:27:33.652Z,0.10
2023-02-05T04:30:03.109Z,0.10
2023-02-05T04:32:33.430Z,0.10
2023-02-05T04:35:00.793Z,0.00
2023-02-05T04:37:28.096Z,0.00
2023-02-05T04:39:55.464Z,0.00
2023-02-05T04:42:22.761Z,-0.10
2023-02-05T04:44:50.303Z,-0.10
2023-02-05T04:47:17.808Z,-0.10
2023-02-05T04:49:45.074Z,-0.10
2023-02-05T04:52:12.396Z,-0.10
2023-02-05T04:54:39.865Z,-0.10
2023-02-05T04:57:07.148Z,-0.10
2023-02-05T04:59:34.562Z,-0.20
2023-02-05T05:02:02.036Z,-0.20
2023-02-05T05:04:29.380Z,-0.20
2023-02-05T05:06:56.767Z,-0.20
2023-02-05T05:09:25.585Z,-0.20
2023-02-05T05:11:54.273Z,-0.20
2023-02-05T05:14:21.976Z,-0.20
2023-02-05T05:16:50.283Z,-0.20
2023-02-05T05:19:17.702Z,-0.20
2023-02-05T05:21:45.037Z,-0.30
2023-02-05T05:24:12.613Z,-0.30
2023-02-05T05:26:43.880Z,-0.30
2023-02-05T05:29:12.752Z,-0.30
2023-02-05T05:31:41.322Z,-0.30
2023-02-05T05:34:08.674Z,-0.30
2023-02-05T05:36:35.957Z,-0.30
2023-02-05T05:39:21.723Z,-0.30
2023-02-05T05:42:07.822Z,-0.40
2023-02-05T05:44:35.468Z,-0.40
2023-02-05T05:47:03.079Z,-0.40
2023-02-05T05:49:30.364Z,-0.50
2023-02-05T05:51:57.679Z,-0.50
2023-02-05T05:54:24.992Z,-0.50
2023-02-05T05:56:52.283Z,-0.50
2023-02-05T05:59:19.501Z,-0.50
2023-02-05T06:01:46.976Z,-0.50
2023-02-05T06:04:14.705Z,-0.40
2023-02-05T06:06:42.500Z,-0.40
2023-02-05T06:09:10.038Z,-0.40
2023-02-05T06:11:37.344Z,-0.40
2023-02-05T06:14:04.669Z,-0.40
2023-02-05T06:16:31.899Z,-0.40
2023-02-05T06:18:59.565Z,-0.40
2023-02-05T06:21:27.064Z,-0.40
2023-02-05T06:23:54.469Z,-0.40
2023-02-05T06:26:22.072Z,-0.40
2023-02-05T06:28:49.487Z,-0.30
2023-02-05T06:31:17.774Z,-0.30
2023-02-05T06:33:45.256Z,-0.30
2023-02-05T06:36:12.522Z,-0.30
2023-02-05T06:38:40.129Z,-0.30
2023-02-05T06:41:07.795Z,-0.20
2023-02-05T06:43:35.163Z,-0.20
2023-02-05T06:46:02.444Z,-0.20
2023-02-05T06:48:29.745Z,-0.10
2023-02-05T06:50:57.011Z,-0.10
2023-02-05T06:53:24.292Z,-0.10
2023-02-05T06:55:51.668Z,0.00
2023-02-05T06:58:18.886Z,0.10
2023-02-05T07:00:46.516Z,0.10
2023-02-05T07:03:13.772Z,0.10
2023-02-05T07:05:41.025Z,0.20
2023-02-05T07:08:08.347Z,0.20
2023-02-05T07:10:35.581Z,0.30
2023-02-05T07:13:05.560Z,0.30
2023-02-05T07:15:37.603Z,0.40
2023-02-05T07:18:05.539Z,0.50
2023-02-05T07:20:32.874Z,0.50
2023-02-05T07:23:00.447Z,0.50
2023-02-05T07:25:28.120Z,0.50
2023-02-05T07:27:56.043Z,0.60
2023-02-05T07:30:23.286Z,0.60
2023-02-05T07:32:50.644Z,0.70
2023-02-05T07:35:18.313Z,0.70
2023-02-05T07:37:45.667Z,0.80
2023-02-05T07:40:13.205Z,0.90
2023-02-05T07:42:40.425Z,0.90
2023-02-05T07:45:09.561Z,1.00
2023-02-05T07:47:36.940Z,1.10
2023-02-05T07:50:06.267Z,1.10
2023-02-05T07:52:34.197Z,1.10
2023-02-05T07:55:01.850Z,1.20
2023-02-05T07:57:29.072Z,1.30
2023-02-05T07:59:56.735Z,1.30
2023-02-05T08:02:24.096Z,1.40
2023-02-05T08:04:51.505Z,1.40
2023-02-05T08:07:19.165Z,1.40
2023-02-05T08:09:46.419Z,1.40
2023-02-05T08:12:13.648Z,1.50
2023-02-05T08:14:40.890Z,1.50
2023-02-05T08:17:08.533Z,1.60
2023-02-05T08:19:35.825Z,1.60
2023-02-05T08:22:03.248Z,1.60
2023-02-05T08:24:31.830Z,1.60
2023-02-05T08:26:59.188Z,1.70
2023-02-05T08:29:26.663Z,1.70
2023-02-05T08:31:54.149Z,1.80
2023-02-05T08:34:21.449Z,1.80
2023-02-05T08:36:48.731Z,1.80
2023-02-05T08:39:16.160Z,1.90
2023-02-05T08:41:44.712Z,1.90
2023-02-05T08:44:12.103Z,1.90
2023-02-05T08:46:49.180Z,2.00
2023-02-05T08:49:17.766Z,2.10
2023-02-05T08:51:45.061Z,2.10
2023-02-05T08:54:13.505Z,2.10
2023-02-05T08:56:42.749Z,2.10
2023-02-05T08:59:10.263Z,2.10
2023-02-05T09:01:40.953Z,2.10
2023-02-05T09:04:09.283Z,2.20
2023-02-05T09:06:36.915Z,2.30
2023-02-05T09:09:04.627Z,2.30
2023-02-05T09:11:32.280Z,2.40
2023-02-05T09:13:59.964Z,2.40
2023-02-05T09:16:27.999Z,2.50
2023-02-05T09:18:56.901Z,2.50
2023-02-05T09:21:24.826Z,2.50
2023-02-05T09:23:53.691Z,2.50
2023-02-05T09:26:21.386Z,2.50
2023-02-05T09:28:48.892Z,2.50
2023-02-05T09:31:18.326Z,2.50
2023-02-05T09:33:46.502Z,2.50
2023-02-05T09:36:16.929Z,2.60
2023-02-05T09:38:46.106Z,2.60
2023-02-05T09:41:13.341Z,2.60
2023-02-05T09:44:00.034Z,2.60
2023-02-05T09:46:38.952Z,2.60
2023-02-05T09:49:21.390Z,2.60
2023-02-05T09:51:53.096Z,2.50
2023-02-05T09:54:28.637Z,2.60
2023-02-05T09:57:00.368Z,2.60
2023-02-05T09:59:29.055Z,2.80
2023-02-05T10:02:03.387Z,2.80
2023-02-05T10:04:31.590Z,2.90
2023-02-05T10:07:28.292Z,3.00
2023-02-05T10:10:16.179Z,3.10
2023-02-05T10:13:18.568Z,3.00
2023-02-05T10:16:04.761Z,3.10
2023-02-05T10:18:44.375Z,3.10
2023-02-05T10:21:26.413Z,3.20
2023-02-05T10:24:14.752Z,3.20
2023-02-05T10:26:50.659Z,3.30
2023-02-05T10:29:36.110Z,3.30
2023-02-05T10:32:24.477Z,3.30
2023-02-05T10:35:30.714Z,3.30
2023-02-05T10:37:58.309Z,3.40
2023-02-05T10:40:39.604Z,3.40
2023-02-05T10:43:30.357Z,3.50
2023-02-05T10:45:58.720Z,3.50
2023-02-05T10:48:51.211Z,3.50
2023-02-05T10:51:41.786Z,3.50
2023-02-05T10:54:28.894Z,3.50
2023-02-05T10:56:59.732Z,3.50
2023-02-05T10:59:33.756Z,3.70
2023-02-05T11:02:08.293Z,3.80
2023-02-05T11:04:44.998Z,3.80
2023-02-05T11:07:21.873Z,3.80
2023-02-05T11:09:49.503Z,3.90
2023-02-05T11:12:32.492Z,3.80
2023-02-05T11:15:02.788Z,3.90
2023-02-05T11:17:38.156Z,4.00
2023-02-05T11:20:22.457Z,3.90
2023-02-05T11:22:50.264Z,3.90
2023-02-05T11:25:20.534Z,3.80
2023-02-05T11:28:05.954Z,3.80
2023-02-05T11:30:52.389Z,3.80
2023-02-05T11:33:26.409Z,3.80
2023-02-05T11:36:05.737Z,3.80
2023-02-05T11:38:34.605Z,3.80
2023-02-05T11:41:05.457Z,3.80
2023-02-05T11:43:36.651Z,3.80
2023-02-05T11:46:07.962Z,3.80
2023-02-05T11:49:00.894Z,3.90
2023-02-05T11:51:48.300Z,3.90
2023-02-05T11:54:27.320Z,3.90
2023-02-05T11:57:23.296Z,4.00
2023-02-05T11:59:57.912Z,4.20
2023-02-05T12:02:28.646Z,4.30
2023-02-05T12:05:20.766Z,4.40
2023-02-05T12:07:54.216Z,4.70
2023-02-05T12:10:38.270Z,4.70
2023-02-05T12:13:18.576Z,4.50
2023-02-05T12:16:03.900Z,4.40
2023-02-05T12:19:14.661Z,4.40
2023-02-05T12:21:50.001Z,4.30
2023-02-05T12:24:52.313Z,4.30
2023-02-05T12:27:33.861Z,4.20
2023-02-05T12:30:01.117Z,4.20
2023-02-05T12:32:58.885Z,4.20
2023-02-05T12:35:55.025Z,4.20
2023-02-05T12:38:33.972Z,4.20
2023-02-05T12:41:30.169Z,4.30
2023-02-05T12:44:23.668Z,4.40
2023-02-05T12:46:57.125Z,4.60
2023-02-05T12:50:03.084Z,4.80
2023-02-05T12:52:56.345Z,4.80
2023-02-05T12:55:36.913Z,4.60
2023-02-05T12:58:09.433Z,4.50
2023-02-05T13:00:55.099Z,4.40
2023-02-05T13:03:45.775Z,4.30
2023-02-05T13:06:21.723Z,4.20
2023-02-05T13:09:16.436Z,4.20
2023-02-05T13:11:54.432Z,4.10
2023-02-05T13:14:26.340Z,4.00
2023-02-05T13:17:06.363Z,4.00
2023-02-05T13:19:43.709Z,3.90
2023-02-05T13:22:55.203Z,3.70
2023-02-05T13:25:59.654Z,3.50
2023-02-05T13:28:48.031Z,3.40
2023-02-05T13:31:40.276Z,3.40
2023-02-05T13:34:10.248Z,3.30
2023-02-05T13:36:37.611Z,3.30
2023-02-05T13:39:26.425Z,3.30
2023-02-05T13:42:36.443Z,3.40
2023-02-05T13:45:41.330Z,3.40
2023-02-05T13:48:08.620Z,3.50
2023-02-05T13:50:55.929Z,3.40
2023-02-05T13:54:01.928Z,3.30
2023-02-05T13:56:37.053Z,3.20
2023-02-05T13:59:11.841Z,3.10
2023-02-05T14:01:49.323Z,2.90
2023-02-05T14:04:38.549Z,2.90
2023-02-05T14:07:31.512Z,2.90
2023-02-05T14:10:01.253Z,3.10
2023-02-05T14:12:37.389Z,3.20
2023-02-05T14:15:19.687Z,3.30
2023-02-05T14:17:53.039Z,3.40
2023-02-05T14:20:28.544Z,3.40
2023-02-05T14:23:04.145Z,3.40
2023-02-05T14:26:05.110Z,3.30
2023-02-05T14:28:37.096Z,3.30
2023-02-05T14:31:07.745Z,3.10
2023-02-05T14:33:43.733Z,3.00
2023-02-05T14:36:21.455Z,2.90
2023-02-05T14:39:21.164Z,2.90
2023-02-05T14:41:53.239Z,2.70
2023-02-05T14:44:36.570Z,2.70
2023-02-05T14:47:19.279Z,2.60
2023-02-05T14:49:53.328Z,2.60
2023-02-05T14:52:30.046Z,2.50
2023-02-05T14:55:03.038Z,2.40
2023-02-05T14:57:38.677Z,2.40
2023-02-05T15:00:42.687Z,2.40
2023-02-05T15:03:13.041Z,2.40
2023-02-05T15:06:05.348Z,2.40
2023-02-05T15:08:36.165Z,2.40
2023-02-05T15:11:09.484Z,2.30
2023-02-05T15:13:37.312Z,2.20
2023-02-05T15:16:19.149Z,2.30
2023-02-05T15:19:01.184Z,2.20
2023-02-05T15:21:42.571Z,2.20
2023-02-05T15:24:18.009Z,2.10
2023-02-05T15:26:56.958Z,2.10
2023-02-05T15:29:47.294Z,2.10
2023-02-05T15:32:23.229Z,2.10
2023-02-05T15:34:54.537Z,2.00
2023-02-05T15:37:28.395Z,2.00
2023-02-05T15:39:59.943Z,1.90
2023-02-05T15:42:40.746Z,1.80
2023-02-05T15:45:26.984Z,1.70
2023-02-05T15:48:06.445Z,1.60
2023-02-05T15:50:36.097Z,1.50
2023-02-05T15:53:07.163Z,1.50
2023-02-05T15:55:34.822Z,1.50
2023-02-05T15:58:06.935Z,1.40
2023-02-05T16:00:37.685Z,1.30
2023-02-05T16:03:05.139Z,1.30
2023-02-05T16:05:32.956Z,1.30
2023-02-05T16:08:03.279Z,1.20
2023-02-05T16:10:34.829Z,1.20
2023-02-05T16:13:16.732Z,1.20
2023-02-05T16:15:56.336Z,1.10
2023-02-05T16:18:34.236Z,1.10
2023-02-05T16:21:13.866Z,1.00
2023-02-05T16:23:49.280Z,1.00
2023-02-05T16:26:25.701Z,1.00
2023-02-05T16:28:57.610Z,0.90
2023-02-05T16:31:29.680Z,0.90
2023-02-05T16:34:00.293Z,0.90
2023-02-05T16:36:34.663Z,0.80
2023-02-05T16:39:07.142Z,0.80
2023-02-05T16:41:40.408Z,0.80
2023-02-05T16:44:27.362Z,0.70
2023-02-05T16:47:12.126Z,0.70
2023-02-05T16:49:40.040Z,0.70
2023-02-05T16:52:33.229Z,0.60
2023-02-05T16:55:26.955Z,0.60
2023-02-05T16:57:56.360Z,0.60
2023-02-05T17:00:29.561Z,0.60
2023-02-05T17:02:59.773Z,0.60
2023-02-05T17:05:34.248Z,0.50
2023-02-05T17:08:07.695Z,0.50
2023-02-05T17:10:52.753Z,0.50
2023-02-05T17:13:43.562Z,0.50
2023-02-05T17:16:26.696Z,0.50
2023-02-05T17:19:06.028Z,0.50
2023-02-05T17:21:37.469Z,0.50
2023-02-05T17:24:09.552Z,0.50
2023-02-05T17:26:40.688Z,0.50
2023-02-05T17:29:13.986Z,0.40
2023-02-05T17:31:41.457Z,0.40
2023-02-05T17:34:11.503Z,0.40
2023-02-05T17:36:38.773Z,0.40
2023-02-05T17:39:06.057Z,0.30
2023-02-05T17:41:55.576Z,0.30
2023-02-05T17:44:23.261Z,0.30
2023-02-05T17:46:50.971Z,0.30
2023-02-05T17:49:18.263Z,0.30
2023-02-05T17:51:45.736Z,0.20
2023-02-05T17:54:18.432Z,0.20
2023-02-05T17:56:48.277Z,0.20
2023-02-05T17:59:18.305Z,0.10
2023-02-05T18:01:46.817Z,0.10
2023-02-05T18:04:14.542Z,0.10
2023-02-05T18:06:42.981Z,0.10
2023-02-05T18:09:10.635Z,0.10
2023-02-05T18:11:38.721Z,0.10
2023-02-05T18:14:06.483Z,0.10
2023-02-05T18:16:34.035Z,0.10
2023-02-05T18:19:01.537Z,0.00
2023-02-05T18:21:29.210Z,0.10
2023-02-05T18:23:56.897Z,0.10
2023-02-05T18:26:27.348Z,0.10
2023-02-05T18:28:55.639Z,0.10
2023-02-05T18:31:23.191Z,0.10
2023-02-05T18:33:51.655Z,0.10
2023-02-05T18:36:18.930Z,0.10
2023-02-05T18:38:46.215Z,0.10
2023-02-05T18:41:25.942Z,0.10
2023-02-05T18:43:58.186Z,0.00
2023-02-05T18:46:25.840Z,0.00
2023-02-05T18:48:55.038Z,0.00
2023-02-05T18:51:23.695Z,0.00
2023-02-05T18:53:51.337Z,0.00
2023-02-05T18:56:21.447Z,-0.10
2023-02-05T18:59:02.919Z,-0.10
2023-02-05T19:01:31.560Z,-0.10
2023-02-05T19:04:05.496Z,-0.10
2023-02-05T19:06:33.091Z,-0.10
2023-02-05T19:09:01.287Z,-0.10
2023-02-05T19:11:30.113Z,-0.10
2023-02-05T19:14:00.180Z,-0.10
2023-02-05T19:16:28.084Z,-0.10
2023-02-05T19:18:56.217Z,-0.20
2023-02-05T19:21:25.075Z,-0.20
2023-02-05T19:23:56.630Z,-0.20
2023-02-05T19:26:27.800Z,-0.20
2023-02-05T19:28:58.078Z,-0.30
2023-02-05T19:31:27.879Z,-0.30
2023-02-05T19:33:56.833Z,-0.40
2023-02-05T19:36:25.264Z,-0.40
2023-02-05T19:38:53.788Z,-0.40
2023-02-05T19:41:23.942Z,-0.50
2023-02-05T19:43:53.703Z,-0.50
2023-02-05T19:46:27.852Z,-0.50
2023-02-05T19:48:56.604Z,-0.50
2023-02-05T19:51:23.899Z,-0.60
2023-02-05T19:53:51.259Z,-0.60
2023-02-05T19:56:21.350Z,-0.60
2023-02-05T19:58:51.493Z,-0.60
2023-02-05T20:01:24.096Z,-0.60
2023-02-05T20:03:53.563Z,-0.60
2023-02-05T20:06:23.067Z,-0.70
2023-02-05T20:08:50.369Z,-0.70
2023-02-05T20:11:18.552Z,-0.70
2023-02-05T20:13:46.869Z,-0.70
2023-02-05T20:16:22.962Z,-0.70
2023-02-05T20:18:55.855Z,-0.70
2023-02-05T20:21:23.362Z,-0.70
2023-02-05T20:23:51.037Z,-0.70
2023-02-05T20:26:19.075Z,-0.80
2023-02-05T20:29:07.479Z,-0.80
2023-02-05T20:31:41.324Z,-0.80
2023-02-05T20:34:18.311Z,-0.80
2023-02-05T20:36:53.815Z,-0.90
2023-02-05T20:39:22.805Z,-0.90
2023-02-05T20:41:52.227Z,-0.90
2023-02-05T20:44:20.045Z,-1.00
2023-02-05T20:46:48.072Z,-1.00
2023-02-05T20:49:15.637Z,-1.00
2023-02-05T20:51:43.872Z,-1.00
2023-02-05T20:54:11.668Z,-1.00
2023-02-05T20:56:39.613Z,-1.10
2023-02-05T20:59:09.315Z,-1.10
2023-02-05T21:01:38.463Z,-1.10
2023-02-05T21:04:07.939Z,-1.20
2023-02-05T21:06:38.348Z,-1.20
2023-02-05T21:09:07.263Z,-1.20
2023-02-05T21:11:35.373Z,-1.30
2023-02-05T21:14:05.860Z,-1.30
2023-02-05T21:16:35.135Z,-1.30
2023-02-05T21:19:05.404Z,-1.30
2023-02-05T21:21:35.030Z,-1.30
2023-02-05T21:24:07.996Z,-1.30
2023-02-05T21:26:38.230Z,-1.30
2023-02-05T21:29:10.969Z,-1.30
2023-02-05T21:31:41.816Z,-1.40
2023-02-05T21:34:12.987Z,-1.40
2023-02-05T21:36:40.969Z,-1.40
2023-02-05T21:39:09.717Z,-1.40
2023-02-05T21:41:37.082Z,-1.40
2023-02-05T21:44:04.982Z,-1.40
2023-02-05T21:46:32.750Z,-1.40
2023-02-05T21:49:01.373Z,-1.50
2023-02-05T21:51:31.874Z,-1.50
2023-02-05T21:54:01.433Z,-1.50
2023-02-05T21:56:32.267Z,-1.50
2023-02-05T21:58:59.880Z,-1.50
2023-02-05T22:01:32.637Z,-1.50
2023-02-05T22:04:02.856Z,-1.50
2023-02-05T22:06:33.944Z,-1.50
2023-02-05T22:09:04.023Z,-1.50
2023-02-05T22:11:31.706Z,-1.50
2023-02-05T22:13:59.697Z,-1.60
2023-02-05T22:16:32.131Z,-1.60
2023-02-05T22:19:00.849Z,-1.60
2023-02-05T22:21:37.060Z,-1.60
2023-02-05T22:24:06.409Z,-1.70
2023-02-05T22:26:36.649Z,-1.70
2023-02-05T22:29:06.462Z,-1.70
2023-02-05T22:31:35.197Z,-1.70
2023-02-05T22:34:03.588Z,-1.70
2023-02-05T22:36:32.700Z,-1.80
2023-02-05T22:39:00.440Z,-1.80
2023-02-05T22:41:30.269Z,-1.80
2023-02-05T22:43:59.220Z,-1.80
2023-02-05T22:46:29.915Z,-1.80
2023-02-05T22:48:59.457Z,-1.90
2023-02-05T22:51:30.618Z,-1.90
2023-02-05T22:53:58.829Z,-1.90
2023-02-05T22:56:26.821Z,-1.90
2023-02-05T22:58:55.009Z,-1.90
2023-02-05T23:01:28.776Z,-1.90
2023-02-05T23:03:57.550Z,-1.90
2023-02-05T23:06:27.630Z,-2.00
2023-02-05T23:09:04.037Z,-1.90
2023-02-05T23:11:33.211Z,-1.90
2023-02-05T23:14:01.639Z,-2.00
2023-02-05T23:16:32.764Z,-2.00
2023-02-05T23:19:06.311Z,-2.00
2023-02-05T23:21:36.238Z,-2.10
2023-02-05T23:24:04.138Z,-2.10
2023-02-05T23:26:35.085Z,-2.20
2023-02-05T23:29:02.533Z,-2.20
2023-02-05T23:31:30.150Z,-2.20
2023-02-05T23:33:57.445Z,-2.20
2023-02-05T23:36:24.737Z,-2.20
2023-02-05T23:38:51.991Z,-2.20
2023-02-05T23:41:35.444Z,-2.20
2023-02-05T23:44:10.308Z,-2.10
2023-02-05T23:46:38.097Z,-2.20
2023-02-05T23:49:07.046Z,-2.20
2023-02-05T23:51:35.042Z,-2.20
2023-02-05T23:54:02.847Z,-2.20
2023-02-05T23:56:30.569Z,-2.20
2023-02-05T23:58:58.046Z,-2.20
